createdAt,value
2023-04-03T00:03:01.055Z,0.90
2023-04-03T00:08:05.591Z,0.90
2023-04-03T00:13:08.928Z,0.80
2023-04-03T00:18:11.764Z,0.80
2023-04-03T00:23:14.158Z,0.70
2023-04-03T00:28:16.878Z,0.70
2023-04-03T00:33:22.579Z,0.70
2023-04-03T00:38:25.098Z,0.70
2023-04-03T00:43:28.657Z,0.70
2023-04-03T00:48:35.648Z,0.70
2023-04-03T00:53:53.308Z,0.60
2023-04-03T00:59:00.838Z,0.60
2023-04-03T01:04:05.119Z,0.50
2023-04-03T01:09:07.951Z,0.50
2023-04-03T01:14:10.437Z,0.40
2023-04-03T01:19:17.407Z,0.40
2023-04-03T01:24:37.241Z,0.30
2023-04-03T01:29:44.494Z,0.30
2023-04-03T01:34:47.053Z,0.20
2023-04-03T01:39:50.082Z,0.20
2023-04-03T01:44:52.472Z,0.10
2023-04-03T01:49:54.788Z,0.20
2023-04-03T01:54:57.169Z,0.00
2023-04-03T01:59:59.927Z,0.10
2023-04-03T02:05:02.496Z,0.00
2023-04-03T02:10:05.158Z,0.00
2023-04-03T02:15:08.085Z,-0.10
2023-04-03T02:20:10.902Z,-0.10
2023-04-03T02:25:13.887Z,0.00
2023-04-03T02:30:17.062Z,0.00
2023-04-03T02:35:20.095Z,-0.10
2023-04-03T02:40:24.193Z,-0.20
2023-04-03T02:45:27.053Z,-0.20
2023-04-03T02:50:29.546Z,-0.20
2023-04-03T02:55:31.928Z,-0.20
2023-04-03T03:00:35.186Z,-0.30
2023-04-03T03:05:37.854Z,-0.30
2023-04-03T03:10:40.334Z,-0.30
2023-04-03T03:15:43.479Z,-0.30
2023-04-03T03:20:46.134Z,-0.30
2023-04-03T03:25:49.399Z,-0.30
2023-04-03T03:30:52.168Z,-0.40
2023-04-03T03:35:55.814Z,-0.40
2023-04-03T03:40:58.396Z,-0.40
2023-04-03T03:46:01.120Z,-0.40
2023-04-03T03:51:04.579Z,-0.40
2023-04-03T03:56:11.566Z,-0.50
2023-04-03T04:01:17.815Z,-0.60
2023-04-03T04:06:24.225Z,-0.60
2023-04-03T04:11:28.810Z,-0.40
2023-04-03T04:16:32.137Z,-0.60
2023-04-03T04:21:40.376Z,-0.60
2023-04-03T04:26:43.940Z,-0.60
2023-04-03T04:31:48.892Z,-0.60
2023-04-03T04:36:51.830Z,-0.60
2023-04-03T04:41:54.712Z,-0.60
2023-04-03T04:46:57.354Z,-0.60
2023-04-03T04:51:59.784Z,-0.60
2023-04-03T04:57:06.155Z,-0.50
2023-04-03T05:02:09.095Z,-0.50
2023-04-03T05:07:13.885Z,-0.40
2023-04-03T05:12:17.050Z,-0.30
2023-04-03T05:17:25.617Z,-0.10
2023-04-03T05:22:31.730Z,0.20
2023-04-03T05:27:40.630Z,0.40
2023-04-03T05:32:43.470Z,0.50
2023-04-03T05:37:53.838Z,0.70
2023-04-03T05:42:57.187Z,0.90
2023-04-03T05:48:01.809Z,1.10
2023-04-03T05:53:06.097Z,1.30
2023-04-03T05:58:11.510Z,1.50
2023-04-03T06:03:14.852Z,1.70
2023-04-03T06:08:18.281Z,1.90
2023-04-03T06:13:20.722Z,2.10
2023-04-03T06:18:23.211Z,2.20
2023-04-03T06:23:25.742Z,2.30
2023-04-03T06:28:28.360Z,2.60
2023-04-03T06:33:30.927Z,2.90
2023-04-03T06:38:34.326Z,3.00
2023-04-03T06:43:37.446Z,3.00
2023-04-03T06:48:39.836Z,3.10
2023-04-03T06:53:44.326Z,3.50
2023-04-03T06:58:47.233Z,3.60
2023-04-03T07:03:50.774Z,3.80
2023-04-03T07:08:53.586Z,4.10
2023-04-03T07:13:56.094Z,4.10
2023-04-03T07:18:58.846Z,4.40
2023-04-03T07:24:01.736Z,4.30
2023-04-03T07:29:04.315Z,4.30
2023-04-03T07:34:06.786Z,4.40
2023-04-03T07:39:09.275Z,4.50
2023-04-03T07:44:12.330Z,4.30
2023-04-03T07:49:14.944Z,4.10
2023-04-03T07:54:17.502Z,5.20
2023-04-03T07:59:19.935Z,4.60
2023-04-03T08:04:22.465Z,5.00
2023-04-03T08:09:24.899Z,5.30
2023-04-03T08:14:27.234Z,5.20
2023-04-03T08:19:29.580Z,5.50
2023-04-03T08:24:36.364Z,5.50
2023-04-03T08:29:38.850Z,5.60
2023-04-03T08:34:41.164Z,5.60
2023-04-03T08:39:44.555Z,5.60
2023-04-03T08:45:15.592Z,6.20
2023-04-03T08:50:24.896Z,6.50
2023-04-03T08:55:32.302Z,6.20
2023-04-03T09:00:56.959Z,6.50
2023-04-03T09:06:07.074Z,6.20
2023-04-03T09:11:27.753Z,6.20
2023-04-03T09:16:44.382Z,5.80
2023-04-03T09:21:46.815Z,5.10
2023-04-03T09:27:03.556Z,4.80
2023-04-03T09:32:37.840Z,5.40
2023-04-03T09:37:46.504Z,5.90
2023-04-03T09:42:55.340Z,6.40
2023-04-03T09:48:15.468Z,6.80
2023-04-03T09:53:37.981Z,7.30
2023-04-03T09:58:49.661Z,6.80
2023-04-03T10:04:15.424Z,6.30
2023-04-03T10:09:24.010Z,5.80
2023-04-03T10:14:27.295Z,6.00
2023-04-03T10:19:38.744Z,6.60
2023-04-03T10:24:54.270Z,6.50
2023-04-03T10:30:07.790Z,6.40
2023-04-03T10:35:28.746Z,6.30
2023-04-03T10:40:54.629Z,6.70
2023-04-03T10:46:05.199Z,6.50
2023-04-03T10:51:28.824Z,6.80
2023-04-03T10:57:11.050Z,7.10
2023-04-03T11:02:20.242Z,7.40
2023-04-03T11:07:31.894Z,7.70
2023-04-03T11:12:57.427Z,7.10
2023-04-03T11:18:04.005Z,6.80
2023-04-03T11:23:52.284Z,6.80
2023-04-03T11:28:59.613Z,6.80
2023-04-03T11:34:35.433Z,7.10
2023-04-03T11:39:40.862Z,7.40
2023-04-03T11:44:43.692Z,7.00
2023-04-03T11:49:59.183Z,6.60
2023-04-03T11:55:01.854Z,6.80
2023-04-03T12:00:42.948Z,6.50
2023-04-03T12:05:45.654Z,7.00
2023-04-03T12:11:15.650Z,6.90
2023-04-03T12:16:38.460Z,6.90
2023-04-03T12:21:49.826Z,7.10
2023-04-03T12:26:59.249Z,7.00
2023-04-03T12:32:30.835Z,7.20
2023-04-03T12:38:10.097Z,7.70
2023-04-03T12:43:27.493Z,6.90
2023-04-03T12:48:34.217Z,6.20
2023-04-03T12:53:39.621Z,7.10
2023-04-03T12:58:41.999Z,8.10
2023-04-03T13:03:48.265Z,8.20
2023-04-03T13:09:01.247Z,7.40
2023-04-03T13:14:17.917Z,7.00
2023-04-03T13:19:20.273Z,7.30
2023-04-03T13:24:22.858Z,7.60
2023-04-03T13:29:34.901Z,6.90
2023-04-03T13:34:45.906Z,6.80
2023-04-03T13:45:28.874Z,7.70
2023-04-03T13:50:31.560Z,7.60
2023-04-03T13:55:37.624Z,7.80
2023-04-03T14:00:53.784Z,7.30
2023-04-03T14:05:56.218Z,6.90
2023-04-03T14:10:58.718Z,6.90
2023-04-03T14:16:13.344Z,7.20
2023-04-03T14:21:20.099Z,6.90
2023-04-03T14:26:25.070Z,6.60
2023-04-03T14:31:27.692Z,6.20
2023-04-03T14:36:31.821Z,6.10
2023-04-03T14:41:34.492Z,6.40
2023-04-03T14:46:55.068Z,6.60
2023-04-03T14:51:59.486Z,6.40
2023-04-03T14:57:02.969Z,5.90
2023-04-03T15:02:27.524Z,5.70
2023-04-03T15:07:32.284Z,6.40
2023-04-03T15:12:34.651Z,6.90
2023-04-03T15:17:37.591Z,6.30
2023-04-03T15:22:39.937Z,5.80
2023-04-03T15:27:42.585Z,5.60
2023-04-03T15:32:45.018Z,5.70
2023-04-03T15:37:48.748Z,6.30
2023-04-03T15:42:53.095Z,6.00
2023-04-03T15:47:56.403Z,5.90
2023-04-03T15:52:59.229Z,5.70
2023-04-03T15:58:02.856Z,5.40
2023-04-03T16:03:15.933Z,5.30
2023-04-03T16:08:19.095Z,5.40
2023-04-03T16:13:21.469Z,5.50
2023-04-03T16:18:25.383Z,5.80
2023-04-03T16:23:27.904Z,5.40
2023-04-03T16:28:33.324Z,5.30
2023-04-03T16:33:36.080Z,5.20
2023-04-03T16:38:40.962Z,5.20
2023-04-03T16:43:46.104Z,5.10
2023-04-03T16:48:48.671Z,5.40
2023-04-03T16:53:51.011Z,5.10
2023-04-03T16:58:54.769Z,4.90
2023-04-03T17:03:57.178Z,4.90
2023-04-03T17:08:59.649Z,4.80
2023-04-03T17:14:02.592Z,4.70
2023-04-03T17:19:05.948Z,4.70
2023-04-03T17:24:13.280Z,4.60
2023-04-03T17:29:15.912Z,4.30
2023-04-03T17:34:18.396Z,4.50
2023-04-03T17:39:20.934Z,4.40
2023-04-03T17:44:23.378Z,4.40
2023-04-03T17:49:25.982Z,4.40
2023-04-03T17:54:28.348Z,4.30
2023-04-03T17:59:31.487Z,4.20
2023-04-03T18:04:33.939Z,4.20
2023-04-03T18:09:37.436Z,4.20
2023-04-03T18:14:41.097Z,4.50
2023-04-03T18:19:43.655Z,4.30
2023-04-03T18:24:46.033Z,4.20
2023-04-03T18:29:55.371Z,4.20
2023-04-03T18:34:57.691Z,4.20
2023-04-03T18:40:00.041Z,4.20
2023-04-03T18:45:05.889Z,4.20
2023-04-03T18:50:08.746Z,4.10
2023-04-03T18:55:12.943Z,4.10
2023-04-03T19:00:17.673Z,4.00
2023-04-03T19:05:22.139Z,4.10
2023-04-03T19:10:24.521Z,4.00
2023-04-03T19:15:27.303Z,4.00
2023-04-03T19:20:29.745Z,4.00
2023-04-03T19:25:32.114Z,3.90
2023-04-03T19:30:34.832Z,3.90
2023-04-03T19:35:40.961Z,3.80
2023-04-03T19:40:43.978Z,3.80
2023-04-03T19:45:46.570Z,3.70
2023-04-03T19:50:48.992Z,3.60
2023-04-03T19:55:51.440Z,3.60
2023-04-03T20:00:55.306Z,3.70
2023-04-03T20:05:58.503Z,3.40
2023-04-03T20:11:01.179Z,3.30
2023-04-03T20:16:05.978Z,3.30
2023-04-03T20:21:08.741Z,3.20
2023-04-03T20:26:23.340Z,3.30
2023-04-03T20:31:27.227Z,3.30
2023-04-03T20:36:31.221Z,3.30
2023-04-03T20:41:35.553Z,3.30
2023-04-03T20:46:52.117Z,3.20
2023-04-03T20:51:56.128Z,3.10
2023-04-03T20:56:59.059Z,3.00
2023-04-03T21:02:01.983Z,2.90
2023-04-03T21:07:43.405Z,2.80
2023-04-03T21:13:23.786Z,2.60
2023-04-03T21:18:35.856Z,2.40
2023-04-03T21:23:38.259Z,2.30
2023-04-03T21:28:42.671Z,2.10
2023-04-03T21:33:45.265Z,2.00
2023-04-03T21:38:48.333Z,2.00
2023-04-03T21:43:50.977Z,2.00
2023-04-03T21:48:56.016Z,2.00
2023-04-03T21:53:58.683Z,2.10
2023-04-03T21:59:03.084Z,2.10
2023-04-03T22:04:05.870Z,2.10
2023-04-03T22:09:08.363Z,2.10
2023-04-03T22:14:10.660Z,2.20
2023-04-03T22:19:13.785Z,2.20
2023-04-03T22:24:18.251Z,2.20
2023-04-03T22:29:21.081Z,2.10
2023-04-03T22:34:24.573Z,2.10
2023-04-03T22:39:26.970Z,2.00
2023-04-03T22:44:35.002Z,1.80
2023-04-03T22:49:39.207Z,1.90
2023-04-03T22:54:42.121Z,1.60
2023-04-03T22:59:44.446Z,1.50
2023-04-03T23:04:47.180Z,1.30
2023-04-03T23:09:49.644Z,1.20
2023-04-03T23:14:51.976Z,1.10
2023-04-03T23:19:54.279Z,1.00
2023-04-03T23:24:56.707Z,0.90
2023-04-03T23:29:59.045Z,0.70
2023-04-03T23:35:01.339Z,0.60
2023-04-03T23:40:03.911Z,0.50
2023-04-03T23:45:07.006Z,0.40
2023-04-03T23:50:10.309Z,0.40
2023-04-03T23:55:12.787Z,0.30
